METAR Data
IDs: Format: Raw Decoded Include TAF

Data at: 0704 UTC 03 Aug 2021

KSJC 030653Z 32007KT 10SM CLR 16/12 A3005 RMK AO2 SLP175 LAST T01610122
KSJC 030553Z 32008KT 10SM FEW090 17/13 A3005 RMK AO2 SLP175 T01670128 10256 20167 51010
KSJC 030453Z 31007KT 10SM FEW060 FEW100 18/13 A3005 RMK AO2 SLP173 T01780128
KSJC 030353Z 31009KT 10SM FEW060 SCT100 19/13 A3003 RMK AO2 SLP168 T01890128
KSJC 030253Z 33012KT 10SM FEW050 SCT090 SCT120 20/13 A3002 RMK AO2 SLP165 T02000133 55001
KSJC 030153Z 32010KT 10SM FEW050 SCT070 SCT100 23/13 A3002 RMK AO2 SLP164 T02280128
KSJC 030053Z 33011KT 10SM FEW050 SCT070 SCT100 24/13 A3002 RMK AO2 SLP165 T02390133
KSJC 022353Z 32010KT 10SM FEW050 SCT070 SCT100 26/13 A3002 RMK AO2 SLP166 T02560128 10261 20211 58013
KSJC 022253Z 33010KT 10SM FEW050 SCT070 BKN100 26/13 A3004 RMK AO2 SLP172 T02560133
KSJC 022153Z 32012KT 10SM FEW050 SCT070 SCT100 26/13 A3005 RMK AO2 SLP175 T02610133
KSJC 022053Z 34009KT 10SM FEW050 FEW070 SCT100 26/13 A3006 RMK AO2 SLP179 T02560133 58014 $
KSJC 021953Z 02007KT 330V070 10SM FEW070 SCT100 24/12 A3008 RMK AO2 SLP185 T02440122 $
KSJC 021853Z VRB04KT 10SM FEW070 SCT120 23/12 A3010 RMK AO2 SLP191 T02280122 $
KSJC 021753Z 34004KT 10SM FEW070 SCT120 21/12 A3010 RMK AO2 SLP193 T02110122 10211 20133 $
KSJC 021653Z VRB03KT 10SM FEW020 FEW070 SCT120 19/12 A3011 RMK AO2 SLP195 T01890117
KSJC 021553Z 00000KT 10SM FEW017 FEW025 18/12 A3012 RMK AO2 SLP198 T01780117
KSJC 021453Z 16004KT 10SM FEW015 FEW070 FEW100 16/11 A3012 RMK AO2 SLP198 T01560111 51014
KSJC 021353Z 19004KT 10SM FEW015 FEW070 FEW100 14/10 A3011 RMK AO2 SLP195 T01390100
KSJC 021253Z 16004KT 10SM FEW015 FEW070 14/11 A3009 RMK AO2 SLP188 T01390106
KSJC 021153Z AUTO 00000KT 10SM CLR 15/11 A3008 RMK AO2 SLP184 T01500106 10172 20144 55004
KSJC 021053Z AUTO 00000KT 10SM CLR 16/12 A3007 RMK AO2 SLP183 T01560117
KSJC 020953Z AUTO 00000KT 10SM CLR 16/11 A3008 RMK AO2 SLP184 T01560111
KSJC 020853Z AUTO 00000KT 10SM CLR 17/12 A3009 RMK AO2 SLP188 T01670117 52001
KSJC 020753Z AUTO 36004KT 10SM CLR 17/12 A3009 RMK AO2 SLP187 T01670117 402560150
KSJC 020653Z 34006KT 10SM FEW010 17/12 A3009 RMK AO2 SLP188 LAST T01670117
KSJC 020553Z 33008KT 10SM CLR 17/12 A3009 RMK AO2 SLP187 T01720117 10250 20172 53015
KSJC 020453Z 33006KT 10SM FEW060 18/12 A3007 RMK AO2 SLP182 T01780117
KSJC 020353Z 34009KT 10SM FEW060 19/12 A3005 RMK AO2 SLP176 T01890117
KSJC 020253Z 34012KT 10SM FEW070 20/12 A3004 RMK AO2 SLP173 T02000122 53007
KSJC 020153Z 32014KT 10SM FEW040 22/13 A3003 RMK AO2 SLP167 T02170128
KSJC 020053Z 33013KT 10SM FEW040 23/13 A3002 RMK AO2 SLP165 T02330128
KSJC 012353Z 34011KT 10SM FEW040 FEW080 24/13 A3002 RMK AO2 SLP166 T02440133 10256 20211 58007
KSJC 012253Z 31010G18KT 10SM FEW040 FEW080 25/13 A3003 RMK AO2 SLP169 T02500133
KSJC 012153Z 33009KT 10SM FEW040 25/14 A3004 RMK AO2 SLP170 T02500139
KSJC 012053Z 32010G18KT 10SM FEW040 25/14 A3004 RMK AO2 SLP172 T02500139 56008
KSJC 011953Z 33007KT 290V350 10SM FEW050 24/13 A3005 RMK AO2 SLP174 T02440128